sensor_id;sensor_type;location;lat;lon;timestamp;temperature;humidity
31619;DHT22;18230;51.502;7.108;2023-09-08T00:04:38;20.40;99.90
31619;DHT22;18230;51.502;7.108;2023-09-08T00:09:39;20.40;99.90
31619;DHT22;18230;51.502;7.108;2023-09-08T00:14:39;20.40;99.90
31619;DHT22;18230;51.502;7.108;2023-09-08T00:19:40;20.50;99.90
31619;DHT22;18230;51.502;7.108;2023-09-08T00:24:41;20.50;99.90
31619;DHT22;18230;51.502;7.108;2023-09-08T00:29:42;20.30;99.90
31619;DHT22;18230;51.502;7.108;2023-09-08T00:34:43;20.20;99.90
31619;DHT22;18230;51.502;7.108;2023-09-08T00:39:43;20.20;99.90
31619;DHT22;18230;51.502;7.108;2023-09-08T00:44:44;20.20;99.90
31619;DHT22;18230;51.502;7.108;2023-09-08T00:49:45;20.30;99.90
31619;DHT22;18230;51.502;7.108;2023-09-08T00:54:46;20.30;99.90
31619;DHT22;18230;51.502;7.108;2023-09-08T00:59:47;20.40;99.90
31619;DHT22;18230;51.502;7.108;2023-09-08T01:04:49;20.30;99.90
31619;DHT22;18230;51.502;7.108;2023-09-08T01:09:53;20.20;99.90
31619;DHT22;18230;51.502;7.108;2023-09-08T01:14:54;20.20;99.90
31619;DHT22;18230;51.502;7.108;2023-09-08T01:19:56;20.30;99.90
31619;DHT22;18230;51.502;7.108;2023-09-08T01:30:10;20.20;99.90
31619;DHT22;18230;51.502;7.108;2023-09-08T01:35:13;20.20;99.90
31619;DHT22;18230;51.502;7.108;2023-09-08T01:40:15;20.00;99.90
31619;DHT22;18230;51.502;7.108;2023-09-08T01:45:16;19.80;99.90
31619;DHT22;18230;51.502;7.108;2023-09-08T01:50:17;19.90;99.90
31619;DHT22;18230;51.502;7.108;2023-09-08T01:55:22;19.90;99.90
31619;DHT22;18230;51.502;7.108;2023-09-08T02:00:23;19.80;99.90
31619;DHT22;18230;51.502;7.108;2023-09-08T02:05:24;19.80;99.90
31619;DHT22;18230;51.502;7.108;2023-09-08T02:10:26;19.70;99.90
31619;DHT22;18230;51.502;7.108;2023-09-08T02:15:28;19.70;99.90
31619;DHT22;18230;51.502;7.108;2023-09-08T02:20:29;19.60;99.90
31619;DHT22;18230;51.502;7.108;2023-09-08T02:25:29;19.60;99.90
31619;DHT22;18230;51.502;7.108;2023-09-08T02:30:30;19.70;99.90
31619;DHT22;18230;51.502;7.108;2023-09-08T02:35:36;19.60;99.90
31619;DHT22;18230;51.502;7.108;2023-09-08T02:40:38;19.60;99.90
31619;DHT22;18230;51.502;7.108;2023-09-08T02:45:39;19.70;99.90
31619;DHT22;18230;51.502;7.108;2023-09-08T02:50:40;19.60;99.90
31619;DHT22;18230;51.502;7.108;2023-09-08T02:55:40;19.50;99.90
31619;DHT22;18230;51.502;7.108;2023-09-08T03:00:41;19.30;99.90
31619;DHT22;18230;51.502;7.108;2023-09-08T03:05:42;19.10;99.90
31619;DHT22;18230;51.502;7.108;2023-09-08T03:10:43;18.90;99.90
31619;DHT22;18230;51.502;7.108;2023-09-08T03:15:44;18.80;99.90
31619;DHT22;18230;51.502;7.108;2023-09-08T03:20:49;18.80;99.90
31619;DHT22;18230;51.502;7.108;2023-09-08T03:25:50;18.70;99.90
31619;DHT22;18230;51.502;7.108;2023-09-08T03:30:51;18.60;99.90
31619;DHT22;18230;51.502;7.108;2023-09-08T03:35:51;18.70;99.90
31619;DHT22;18230;51.502;7.108;2023-09-08T03:40:52;18.70;99.90
31619;DHT22;18230;51.502;7.108;2023-09-08T03:45:53;18.50;99.90
31619;DHT22;18230;51.502;7.108;2023-09-08T03:50:54;18.60;99.90
31619;DHT22;18230;51.502;7.108;2023-09-08T03:55:54;18.60;99.90
31619;DHT22;18230;51.502;7.108;2023-09-08T04:00:55;18.60;99.90
31619;DHT22;18230;51.502;7.108;2023-09-08T04:05:56;18.60;99.90
31619;DHT22;18230;51.502;7.108;2023-09-08T04:10:56;18.60;99.90
31619;DHT22;18230;51.502;7.108;2023-09-08T04:15:57;18.50;99.90
31619;DHT22;18230;51.502;7.108;2023-09-08T04:20:58;18.50;99.90
31619;DHT22;18230;51.502;7.108;2023-09-08T04:25:59;18.40;99.90
31619;DHT22;18230;51.502;7.108;2023-09-08T04:30:59;18.40;99.90
31619;DHT22;18230;51.502;7.108;2023-09-08T04:36:00;18.40;99.90
31619;DHT22;18230;51.502;7.108;2023-09-08T04:41:01;18.30;99.90
31619;DHT22;18230;51.502;7.108;2023-09-08T04:46:01;18.30;99.90
31619;DHT22;18230;51.502;7.108;2023-09-08T04:51:04;18.20;99.90
31619;DHT22;18230;51.502;7.108;2023-09-08T04:56:04;18.10;99.90
31619;DHT22;18230;51.502;7.108;2023-09-08T05:01:05;18.10;99.90
31619;DHT22;18230;51.502;7.108;2023-09-08T05:06:06;18.00;99.90
31619;DHT22;18230;51.502;7.108;2023-09-08T05:11:06;18.00;99.90
31619;DHT22;18230;51.502;7.108;2023-09-08T05:16:07;18.10;99.90
31619;DHT22;18230;51.502;7.108;2023-09-08T05:21:12;18.30;99.90
31619;DHT22;18230;51.502;7.108;2023-09-08T05:26:14;18.40;99.90
31619;DHT22;18230;51.502;7.108;2023-09-08T05:31:15;18.50;99.90
31619;DHT22;18230;51.502;7.108;2023-09-08T05:36:16;18.50;99.90
31619;DHT22;18230;51.502;7.108;2023-09-08T05:41:16;18.60;99.90
31619;DHT22;18230;51.502;7.108;2023-09-08T05:46:17;18.70;99.90
31619;DHT22;18230;51.502;7.108;2023-09-08T05:51:18;18.90;99.90
31619;DHT22;18230;51.502;7.108;2023-09-08T05:56:19;19.10;99.90
31619;DHT22;18230;51.502;7.108;2023-09-08T06:01:20;19.20;99.90
31619;DHT22;18230;51.502;7.108;2023-09-08T06:06:21;19.40;99.90
31619;DHT22;18230;51.502;7.108;2023-09-08T06:11:22;19.50;99.90
31619;DHT22;18230;51.502;7.108;2023-09-08T06:16:22;19.60;99.90
31619;DHT22;18230;51.502;7.108;2023-09-08T06:21:23;19.90;99.90
31619;DHT22;18230;51.502;7.108;2023-09-08T06:26:24;20.10;99.90
31619;DHT22;18230;51.502;7.108;2023-09-08T06:31:24;20.40;99.90
31619;DHT22;18230;51.502;7.108;2023-09-08T06:36:25;20.60;99.90
31619;DHT22;18230;51.502;7.108;2023-09-08T06:41:26;20.80;99.90
31619;DHT22;18230;51.502;7.108;2023-09-08T06:46:27;21.00;99.90
31619;DHT22;18230;51.502;7.108;2023-09-08T06:51:28;21.30;99.90
31619;DHT22;18230;51.502;7.108;2023-09-08T06:56:29;21.50;99.90
31619;DHT22;18230;51.502;7.108;2023-09-08T07:01:30;21.70;99.90
31619;DHT22;18230;51.502;7.108;2023-09-08T07:06:43;21.90;99.90
31619;DHT22;18230;51.502;7.108;2023-09-08T07:11:45;22.10;99.90
31619;DHT22;18230;51.502;7.108;2023-09-08T07:16:46;22.40;99.90
31619;DHT22;18230;51.502;7.108;2023-09-08T07:21:46;22.70;99.90
31619;DHT22;18230;51.502;7.108;2023-09-08T07:26:47;22.90;99.90
31619;DHT22;18230;51.502;7.108;2023-09-08T07:31:48;23.20;99.90
31619;DHT22;18230;51.502;7.108;2023-09-08T07:36:49;23.30;99.90
31619;DHT22;18230;51.502;7.108;2023-09-08T07:41:50;23.50;99.90
31619;DHT22;18230;51.502;7.108;2023-09-08T07:46:51;23.70;99.90
31619;DHT22;18230;51.502;7.108;2023-09-08T07:51:52;23.90;99.90
31619;DHT22;18230;51.502;7.108;2023-09-08T07:56:52;24.20;99.90
31619;DHT22;18230;51.502;7.108;2023-09-08T08:01:53;24.60;99.90
31619;DHT22;18230;51.502;7.108;2023-09-08T08:06:54;24.80;99.90
31619;DHT22;18230;51.502;7.108;2023-09-08T08:11:54;24.90;99.90
31619;DHT22;18230;51.502;7.108;2023-09-08T08:16:55;25.10;99.90
31619;DHT22;18230;51.502;7.108;2023-09-08T08:21:56;25.30;99.90
31619;DHT22;18230;51.502;7.108;2023-09-08T08:26:57;25.50;99.90
31619;DHT22;18230;51.502;7.108;2023-09-08T08:31:58;25.60;99.90
31619;DHT22;18230;51.502;7.108;2023-09-08T08:36:58;25.80;99.90
31619;DHT22;18230;51.502;7.108;2023-09-08T08:42:07;26.10;99.90
31619;DHT22;18230;51.502;7.108;2023-09-08T08:47:10;26.10;99.90
31619;DHT22;18230;51.502;7.108;2023-09-08T08:52:11;26.30;99.90
31619;DHT22;18230;51.502;7.108;2023-09-08T08:57:15;26.50;99.90
31619;DHT22;18230;51.502;7.108;2023-09-08T09:02:16;26.80;99.90
31619;DHT22;18230;51.502;7.108;2023-09-08T09:07:19;26.90;99.90
31619;DHT22;18230;51.502;7.108;2023-09-08T09:12:20;27.00;99.90
31619;DHT22;18230;51.502;7.108;2023-09-08T09:17:22;27.20;99.90
31619;DHT22;18230;51.502;7.108;2023-09-08T09:22:23;27.40;99.90
31619;DHT22;18230;51.502;7.108;2023-09-08T09:27:23;27.50;99.90
31619;DHT22;18230;51.502;7.108;2023-09-08T09:32:24;27.70;99.90
31619;DHT22;18230;51.502;7.108;2023-09-08T09:37:27;27.80;99.90
31619;DHT22;18230;51.502;7.108;2023-09-08T09:42:28;28.00;99.90
31619;DHT22;18230;51.502;7.108;2023-09-08T09:47:29;28.20;99.90
31619;DHT22;18230;51.502;7.108;2023-09-08T09:52:30;28.30;99.90
31619;DHT22;18230;51.502;7.108;2023-09-08T09:57:31;28.30;99.90
31619;DHT22;18230;51.502;7.108;2023-09-08T10:02:33;28.40;99.90
31619;DHT22;18230;51.502;7.108;2023-09-08T10:07:34;28.50;99.90
31619;DHT22;18230;51.502;7.108;2023-09-08T10:12:37;28.50;99.90
31619;DHT22;18230;51.502;7.108;2023-09-08T10:17:41;28.70;99.90
31619;DHT22;18230;51.502;7.108;2023-09-08T10:22:46;28.80;99.90
31619;DHT22;18230;51.502;7.108;2023-09-08T10:27:48;29.00;99.90
31619;DHT22;18230;51.502;7.108;2023-09-08T10:32:49;29.10;99.90
31619;DHT22;18230;51.502;7.108;2023-09-08T10:37:51;29.20;99.90
31619;DHT22;18230;51.502;7.108;2023-09-08T10:43:12;29.30;99.90
31619;DHT22;18230;51.502;7.108;2023-09-08T10:48:13;29.40;99.90
31619;DHT22;18230;51.502;7.108;2023-09-08T10:53:17;29.40;99.90
31619;DHT22;18230;51.502;7.108;2023-09-08T10:58:30;29.60;99.90
31619;DHT22;18230;51.502;7.108;2023-09-08T11:08:44;29.70;99.90
31619;DHT22;18230;51.502;7.108;2023-09-08T11:13:44;29.80;99.90
31619;DHT22;18230;51.502;7.108;2023-09-08T11:18:47;29.90;99.90
31619;DHT22;18230;51.502;7.108;2023-09-08T11:23:47;30.10;98.60
31619;DHT22;18230;51.502;7.108;2023-09-08T11:28:48;30.10;98.40
31619;DHT22;18230;51.502;7.108;2023-09-08T11:33:54;30.10;97.50
31619;DHT22;18230;51.502;7.108;2023-09-08T11:38:55;30.20;96.30
31619;DHT22;18230;51.502;7.108;2023-09-08T11:43:56;30.20;96.70
31619;DHT22;18230;51.502;7.108;2023-09-08T11:48:57;30.20;96.70
31619;DHT22;18230;51.502;7.108;2023-09-08T11:53:58;30.30;96.90
31619;DHT22;18230;51.502;7.108;2023-09-08T11:59:00;30.40;95.80
31619;DHT22;18230;51.502;7.108;2023-09-08T12:04:02;30.40;95.10
31619;DHT22;18230;51.502;7.108;2023-09-08T12:09:02;30.50;93.80
31619;DHT22;18230;51.502;7.108;2023-09-08T12:14:07;30.50;93.80
31619;DHT22;18230;51.502;7.108;2023-09-08T12:19:30;30.60;92.60
31619;DHT22;18230;51.502;7.108;2023-09-08T12:30:00;30.60;92.10
31619;DHT22;18230;51.502;7.108;2023-09-08T12:35:03;30.80;91.90
31619;DHT22;18230;51.502;7.108;2023-09-08T12:40:05;30.80;90.60
31619;DHT22;18230;51.502;7.108;2023-09-08T12:45:06;30.80;90.80
31619;DHT22;18230;51.502;7.108;2023-09-08T12:50:07;30.80;90.80
31619;DHT22;18230;51.502;7.108;2023-09-08T12:55:09;30.80;90.10
31619;DHT22;18230;51.502;7.108;2023-09-08T13:00:10;30.80;90.40
31619;DHT22;18230;51.502;7.108;2023-09-08T13:05:14;30.80;88.30
31619;DHT22;18230;51.502;7.108;2023-09-08T13:10:15;30.90;86.60
31619;DHT22;18230;51.502;7.108;2023-09-08T13:15:16;31.00;86.70
31619;DHT22;18230;51.502;7.108;2023-09-08T13:20:17;30.90;85.50
31619;DHT22;18230;51.502;7.108;2023-09-08T13:25:17;31.00;87.80
31619;DHT22;18230;51.502;7.108;2023-09-08T13:30:19;31.10;87.50
31619;DHT22;18230;51.502;7.108;2023-09-08T13:35:22;31.10;86.30
31619;DHT22;18230;51.502;7.108;2023-09-08T13:40:22;31.10;86.80
31619;DHT22;18230;51.502;7.108;2023-09-08T13:45:23;31.00;86.90
31619;DHT22;18230;51.502;7.108;2023-09-08T13:50:24;31.10;86.20
31619;DHT22;18230;51.502;7.108;2023-09-08T13:55:25;31.30;85.30
31619;DHT22;18230;51.502;7.108;2023-09-08T14:00:25;31.50;85.50
31619;DHT22;18230;51.502;7.108;2023-09-08T14:05:26;31.70;85.10
31619;DHT22;18230;51.502;7.108;2023-09-08T14:10:27;31.80;84.10
31619;DHT22;18230;51.502;7.108;2023-09-08T14:15:28;32.10;85.40
31619;DHT22;18230;51.502;7.108;2023-09-08T14:20:28;32.30;83.10
31619;DHT22;18230;51.502;7.108;2023-09-08T14:25:29;32.40;81.20
31619;DHT22;18230;51.502;7.108;2023-09-08T14:30:30;32.60;81.50
31619;DHT22;18230;51.502;7.108;2023-09-08T14:35:31;32.70;82.60
31619;DHT22;18230;51.502;7.108;2023-09-08T14:40:31;32.80;83.90
31619;DHT22;18230;51.502;7.108;2023-09-08T14:45:32;33.00;82.10
31619;DHT22;18230;51.502;7.108;2023-09-08T14:50:33;33.20;80.40
31619;DHT22;18230;51.502;7.108;2023-09-08T14:55:37;33.30;78.70
31619;DHT22;18230;51.502;7.108;2023-09-08T15:00:38;33.50;79.50
31619;DHT22;18230;51.502;7.108;2023-09-08T15:05:39;33.50;79.10
31619;DHT22;18230;51.502;7.108;2023-09-08T15:10:41;33.60;79.60
31619;DHT22;18230;51.502;7.108;2023-09-08T15:15:41;33.70;79.70
31619;DHT22;18230;51.502;7.108;2023-09-08T15:20:53;33.70;79.00
31619;DHT22;18230;51.502;7.108;2023-09-08T15:25:58;33.60;78.50
31619;DHT22;18230;51.502;7.108;2023-09-08T15:30:59;33.50;78.90
31619;DHT22;18230;51.502;7.108;2023-09-08T15:35:59;33.60;79.90
31619;DHT22;18230;51.502;7.108;2023-09-08T15:46:17;33.90;78.80
31619;DHT22;18230;51.502;7.108;2023-09-08T15:51:18;34.10;78.70
31619;DHT22;18230;51.502;7.108;2023-09-08T15:56:19;34.10;79.00
31619;DHT22;18230;51.502;7.108;2023-09-08T16:01:20;34.10;78.10
31619;DHT22;18230;51.502;7.108;2023-09-08T16:06:20;34.10;77.00
31619;DHT22;18230;51.502;7.108;2023-09-08T16:11:21;34.20;77.90
31619;DHT22;18230;51.502;7.108;2023-09-08T16:16:22;34.30;77.30
31619;DHT22;18230;51.502;7.108;2023-09-08T16:21:23;34.30;77.40
31619;DHT22;18230;51.502;7.108;2023-09-08T16:26:23;34.40;77.70
31619;DHT22;18230;51.502;7.108;2023-09-08T16:31:24;34.40;77.50
31619;DHT22;18230;51.502;7.108;2023-09-08T16:36:25;34.40;80.60
31619;DHT22;18230;51.502;7.108;2023-09-08T16:41:26;34.40;78.40
31619;DHT22;18230;51.502;7.108;2023-09-08T16:46:26;34.30;78.20
31619;DHT22;18230;51.502;7.108;2023-09-08T16:51:27;34.30;78.90
31619;DHT22;18230;51.502;7.108;2023-09-08T16:56:28;34.20;83.80
31619;DHT22;18230;51.502;7.108;2023-09-08T17:01:29;34.10;82.50
31619;DHT22;18230;51.502;7.108;2023-09-08T17:06:29;33.90;85.00
31619;DHT22;18230;51.502;7.108;2023-09-08T17:11:30;33.80;86.50
31619;DHT22;18230;51.502;7.108;2023-09-08T17:16:37;33.50;89.40
31619;DHT22;18230;51.502;7.108;2023-09-08T17:21:37;33.00;90.90
31619;DHT22;18230;51.502;7.108;2023-09-08T17:26:38;32.60;93.20
31619;DHT22;18230;51.502;7.108;2023-09-08T17:31:39;32.20;94.70
31619;DHT22;18230;51.502;7.108;2023-09-08T17:36:40;31.80;97.20
31619;DHT22;18230;51.502;7.108;2023-09-08T17:41:40;31.30;99.20
31619;DHT22;18230;51.502;7.108;2023-09-08T17:46:42;30.90;99.90
31619;DHT22;18230;51.502;7.108;2023-09-08T17:51:43;30.50;99.90
31619;DHT22;18230;51.502;7.108;2023-09-08T17:56:44;30.10;99.90
31619;DHT22;18230;51.502;7.108;2023-09-08T18:01:44;29.90;99.90
31619;DHT22;18230;51.502;7.108;2023-09-08T18:06:45;29.60;99.90
31619;DHT22;18230;51.502;7.108;2023-09-08T18:11:46;29.40;99.90
31619;DHT22;18230;51.502;7.108;2023-09-08T18:16:48;29.10;99.90
31619;DHT22;18230;51.502;7.108;2023-09-08T18:21:50;28.70;99.90
31619;DHT22;18230;51.502;7.108;2023-09-08T18:26:51;28.40;99.90
31619;DHT22;18230;51.502;7.108;2023-09-08T18:31:51;28.10;99.90
31619;DHT22;18230;51.502;7.108;2023-09-08T18:36:52;27.80;99.90
31619;DHT22;18230;51.502;7.108;2023-09-08T18:41:53;27.50;99.90
31619;DHT22;18230;51.502;7.108;2023-09-08T18:46:53;27.40;99.90
31619;DHT22;18230;51.502;7.108;2023-09-08T18:51:54;27.30;99.90
31619;DHT22;18230;51.502;7.108;2023-09-08T18:56:55;27.10;99.90
31619;DHT22;18230;51.502;7.108;2023-09-08T19:01:56;27.00;99.90
31619;DHT22;18230;51.502;7.108;2023-09-08T19:06:57;27.00;99.90
31619;DHT22;18230;51.502;7.108;2023-09-08T19:11:57;26.90;99.90
31619;DHT22;18230;51.502;7.108;2023-09-08T19:16:58;26.80;99.90
31619;DHT22;18230;51.502;7.108;2023-09-08T19:22:00;26.50;99.90
31619;DHT22;18230;51.502;7.108;2023-09-08T19:27:01;26.10;99.90
31619;DHT22;18230;51.502;7.108;2023-09-08T19:32:01;26.00;99.90
31619;DHT22;18230;51.502;7.108;2023-09-08T19:37:02;25.90;99.90
31619;DHT22;18230;51.502;7.108;2023-09-08T19:42:03;25.90;99.90
31619;DHT22;18230;51.502;7.108;2023-09-08T19:47:04;25.80;99.90
31619;DHT22;18230;51.502;7.108;2023-09-08T19:52:05;25.70;99.90
31619;DHT22;18230;51.502;7.108;2023-09-08T19:57:06;25.40;99.90
31619;DHT22;18230;51.502;7.108;2023-09-08T20:02:07;25.30;99.90
31619;DHT22;18230;51.502;7.108;2023-09-08T20:07:08;25.10;99.90
31619;DHT22;18230;51.502;7.108;2023-09-08T20:12:09;24.90;99.90
31619;DHT22;18230;51.502;7.108;2023-09-08T20:17:09;24.90;99.90
31619;DHT22;18230;51.502;7.108;2023-09-08T20:22:10;24.90;99.90
31619;DHT22;18230;51.502;7.108;2023-09-08T20:27:11;24.60;99.90
31619;DHT22;18230;51.502;7.108;2023-09-08T20:32:11;24.40;99.90
31619;DHT22;18230;51.502;7.108;2023-09-08T20:37:12;24.30;99.90
31619;DHT22;18230;51.502;7.108;2023-09-08T20:42:13;24.30;99.90
31619;DHT22;18230;51.502;7.108;2023-09-08T20:47:14;24.20;99.90
31619;DHT22;18230;51.502;7.108;2023-09-08T20:52:17;24.10;99.90
31619;DHT22;18230;51.502;7.108;2023-09-08T20:57:17;24.00;99.90
31619;DHT22;18230;51.502;7.108;2023-09-08T21:02:19;23.90;99.90
31619;DHT22;18230;51.502;7.108;2023-09-08T21:07:20;23.80;99.90
31619;DHT22;18230;51.502;7.108;2023-09-08T21:12:20;23.70;99.90
31619;DHT22;18230;51.502;7.108;2023-09-08T21:17:21;23.70;99.90
31619;DHT22;18230;51.502;7.108;2023-09-08T21:22:22;23.60;99.90
31619;DHT22;18230;51.502;7.108;2023-09-08T21:27:22;23.50;99.90
31619;DHT22;18230;51.502;7.108;2023-09-08T21:32:23;23.60;99.90
31619;DHT22;18230;51.502;7.108;2023-09-08T21:37:24;23.50;99.90
31619;DHT22;18230;51.502;7.108;2023-09-08T21:42:25;23.30;99.90
31619;DHT22;18230;51.502;7.108;2023-09-08T21:47:27;23.40;99.90
31619;DHT22;18230;51.502;7.108;2023-09-08T21:52:31;23.50;99.90
31619;DHT22;18230;51.502;7.108;2023-09-08T21:57:31;23.30;99.90
31619;DHT22;18230;51.502;7.108;2023-09-08T22:02:32;23.20;99.90
31619;DHT22;18230;51.502;7.108;2023-09-08T22:07:33;23.20;99.90
31619;DHT22;18230;51.502;7.108;2023-09-08T22:12:34;23.10;99.90
31619;DHT22;18230;51.502;7.108;2023-09-08T22:17:34;23.00;99.90
31619;DHT22;18230;51.502;7.108;2023-09-08T22:22:35;22.90;99.90
31619;DHT22;18230;51.502;7.108;2023-09-08T22:27:37;22.80;99.90
31619;DHT22;18230;51.502;7.108;2023-09-08T22:32:38;22.80;99.90
31619;DHT22;18230;51.502;7.108;2023-09-08T22:37:39;22.60;99.90
31619;DHT22;18230;51.502;7.108;2023-09-08T22:42:39;22.50;99.90
31619;DHT22;18230;51.502;7.108;2023-09-08T22:47:40;22.50;99.90
31619;DHT22;18230;51.502;7.108;2023-09-08T22:52:41;22.40;99.90
31619;DHT22;18230;51.502;7.108;2023-09-08T22:57:45;22.30;99.90
31619;DHT22;18230;51.502;7.108;2023-09-08T23:02:46;22.30;99.90
31619;DHT22;18230;51.502;7.108;2023-09-08T23:07:47;22.30;99.90
31619;DHT22;18230;51.502;7.108;2023-09-08T23:12:48;22.20;99.90
31619;DHT22;18230;51.502;7.108;2023-09-08T23:17:49;22.10;99.90
31619;DHT22;18230;51.502;7.108;2023-09-08T23:22:49;22.10;99.90
31619;DHT22;18230;51.502;7.108;2023-09-08T23:27:50;22.00;99.90
31619;DHT22;18230;51.502;7.108;2023-09-08T23:32:51;22.00;99.90
31619;DHT22;18230;51.502;7.108;2023-09-08T23:37:52;22.00;99.90
31619;DHT22;18230;51.502;7.108;2023-09-08T23:42:52;22.00;99.90
31619;DHT22;18230;51.502;7.108;2023-09-08T23:47:53;22.00;99.90
31619;DHT22;18230;51.502;7.108;2023-09-08T23:52:54;22.00;99.90
31619;DHT22;18230;51.502;7.108;2023-09-08T23:57:54;21.90;99.90
